• Join FlightAware (Why Join?)
  • Login
  • US Flag 
04:01AM EDT


 

Airport Tracker/Info


-or-


 

Live Flight TrackerFlight Track Log ✈ FLG3862 ✈ 17-Apr-2013 ✈ KBTV - KDTW

Flight Track Log - Related Links

Times and Time Zones

All times are in EDT time to prevent confusion due to time zone crossing. See the FLG3862 flight status page for this flight to view local times or setup timezone preferences in your user account.

Time Position Orientation Groundspeed Altitude Reporting Facility
EDT Latitude Longitude Course Direction KTS MPH feet Rate Location/Type
12:36PM 44.4101 -73.4975 253° West  Level FlightAware Approximate
12:37PM 44.3857 -73.6116 253° West  Level FlightAware Approximate
12:37PM 44.4714 -73.4494 254° West 268 308 8,900  Level Boston Center
12:38PM 44.3630 -73.7262 259° West  Level FlightAware Approximate
12:38PM 44.4539 -73.5481 256° West 263 303 11,300  Level Boston Center
12:39PM 44.3463 -73.8428 259° West  Level FlightAware Approximate
12:39PM 44.4339 -73.6611 256° West 280 322 12,800  Level Boston Center
12:40PM 44.3286 -73.9591 256° West  Level FlightAware Approximate
12:40PM 44.4097 -73.7856 255° West 312 359 14,300  Level Boston Center
12:41PM 44.3074 -74.0743 256° West  Level FlightAware Approximate
12:41PM 44.3875 -73.9069 256° West 323 372 16,200  Level Boston Center
12:42PM 44.2862 -74.1894 256° West  Level FlightAware Approximate
12:42PM 44.3650 -74.0256 255° West 328 377 17,800  Level Boston Center
12:43PM 44.3403 -74.1469 254° West 323 372 18,700 1,140 Climbing Boston Center
12:44PM 44.3156 -74.2708 254° West 323 372 20,100 1,740 Climbing Boston Center
12:45PM 44.2928 -74.3892 255° West 323 372 22,200 1,800 Climbing Boston Center
12:46PM 44.2700 -74.4956 253° West 311 358 23,800 1,080 Climbing Boston Center
12:47PM 44.2514 -74.6053 257° West 300 345 24,400 540 Climbing Boston Center
12:48PM 44.2283 -74.7261 255° West 305 351 24,900 480 Climbing Boston Center
12:49PM 44.2050 -74.8439 255° West 315 362 25,400 480 Climbing Boston Center
12:50PM 44.1794 -74.9703 254° West 328 377 25,900 480 Climbing Boston Center
12:51PM 44.1536 -75.0936 254° West 333 383 26,400 480 Climbing Boston Center
12:52PM 44.1297 -75.2197 255° West 339 390 26,900 540 Climbing Boston Center
12:53PM 44.1011 -75.3631 255° West 344 396 27,500 540 Climbing Boston Center
12:54PM 44.0750 -75.4919 254° West 344 396 28,000 480 Climbing Boston Center
12:55PM 44.0483 -75.6233 254° West 349 402 28,500 480 Climbing Boston Center
12:56PM 44.0219 -75.7519 254° West 354 407 29,000 480 Climbing Boston Center
12:57PM 43.9931 -75.8861 253° West 354 407 29,500 480 Climbing Boston Center
12:58PM 43.9661 -76.0144 254° West 354 407 30,000 480 Climbing Boston Center
12:59PM 43.9536 -76.1464 263° West 354 407 30,500 480 Climbing Boston Center
01:00PM 43.9492 -76.2758 267° West 349 402 31,000 480 Climbing Boston Center
01:01PM 43.9469 -76.4056 269° West 344 396 31,500 480 Climbing Boston Center
01:02PM 43.9444 -76.5353 269° West 344 396 32,000 240 Climbing Boston Center
01:03PM 43.9419 -76.6650 269° West 344 396 32,000  Level Boston Center
01:04PM 43.9369 -76.7944 267° West 344 396 32,000  Level Boston Center
01:05PM 43.9167 -76.9167 257° West 350 403 32,000  Level Toronto Center
01:06PM 43.9000 -77.0667 261° West 350 403 32,000  Level Toronto Center
01:07PM 43.8833 -77.2000 260° West 350 403 32,000  Level Toronto Center
01:08PM 43.8667 -77.3500 261° West 360 414 32,000  Level Toronto Center
01:09PM 43.8667 -77.4833 270° West 360 414 32,000  Level Toronto Center
01:10PM 43.8333 -77.6167 251° West 360 414 32,000  Level Toronto Center
01:11PM 43.8167 -77.7333 259° West 360 414 32,000  Level Toronto Center
01:12PM 43.8000 -77.9000 262° West 360 414 32,000  Level Toronto Center
01:13PM 43.7667 -78.0167 248° West 370 426 32,000  Level Toronto Center
01:14PM 43.7500 -78.1833 262° West 370 426 32,000  Level Toronto Center
01:15PM 43.7333 -78.3000 259° West 370 426 32,000  Level Toronto Center
01:16PM 43.7000 -78.4333 251° West 370 426 32,000  Level Toronto Center
01:17PM 43.7000 -78.6000 270° West 370 426 32,000  Level Toronto Center
01:18PM 43.6667 -78.7167 248° West 370 426 32,000  Level Toronto Center
01:19PM 43.6167 -78.8500 243° Southwest 390 449 32,000 -240 Level Toronto Center
01:20PM 43.5667 -78.9833 243° Southwest 390 449 31,600 -660 Descending Toronto Center
01:21PM 43.5000 -79.1000 232° Southwest 400 460 30,700 -840 Descending Toronto Center
01:22PM 43.4333 -79.2500 239° Southwest 410 472 30,000 -780 Descending Toronto Center
01:23PM 43.3833 -79.3833 243° Southwest 410 472 29,200 -900 Descending Toronto Center
01:24PM 43.3167 -79.5000 232° Southwest 400 460 28,200 -1,020 Descending Toronto Center
01:25PM 43.2667 -79.6333 243° Southwest 400 460 27,200 -1,020 Descending Toronto Center
01:26PM 43.2000 -79.7667 236° Southwest 400 460 26,200 -1,020 Descending Toronto Center
01:27PM 43.1500 -79.9000 243° Southwest 410 472 25,200 -1,020 Descending Toronto Center
01:28PM 43.0833 -80.0500 239° Southwest 400 460 24,200 -720 Descending Toronto Center
01:29PM 43.0333 -80.1500 236° Southwest 400 460 23,800 -600 Descending Toronto Center
01:30PM 42.9667 -80.3000 239° Southwest 390 449 23,000 -420 Descending Toronto Center
01:31PM 42.9167 -80.4000 236° Southwest 390 449 23,000  Level Toronto Center
01:32PM 42.8667 -80.5500 246° West 380 437 23,000  Level Toronto Center
01:33PM 42.8519 -80.6964 262° West 377 434 23,000  Level Cleveland Center
01:34PM 42.8289 -80.8294 257° West 388 447 23,000  Level Cleveland Center
01:35PM 42.8033 -80.9736 256° West 397 457 23,000  Level Cleveland Center
01:36PM 42.7758 -81.1206 256° West 397 457 23,000 -300 Level Cleveland Center
01:37PM 42.7500 -81.2675 257° West 397 457 22,400 -840 Descending Cleveland Center
01:38PM 42.7239 -81.4142 256° West 402 463 21,400 -720 Descending Cleveland Center
01:39PM 42.6978 -81.5578 256° West 396 456 21,000 -240 Descending Cleveland Center
01:40PM 42.6717 -81.6958 256° West 385 443 21,000  Level Cleveland Center
01:41PM 42.6408 -81.8419 254° West 380 437 21,000 -120 Level Cleveland Center
01:42PM 42.6164 -81.9853 257° West 380 437 20,800 -1,260 Descending Cleveland Center
01:43PM 42.5894 -82.1203 255° West 375 432 18,500 -2,100 Descending Cleveland Center
01:44PM 42.5647 -82.2519 256° West 375 432 16,600 -2,160 Descending Cleveland Center
01:45PM 42.5442 -82.3700 257° West 382 440 14,600 -2,220 Descending Cleveland Center
01:46PM 42.5125 -82.5239 254° West 375 432 12,200 -1,320 Descending Cleveland Center
01:47PM 42.4861 -82.6161 249° West 347 399 12,100 -60 Descending Cleveland Center
01:48PM 42.4400 -82.7439 244° Southwest 344 396 12,100  Level Cleveland Center
01:49PM 42.3958 -82.8606 243° Southwest 346 398 12,100  Level Cleveland Center
01:50PM 42.3472 -82.9964 244° Southwest 352 405 12,100 -60 Level Cleveland Center
01:51PM 42.3142 -83.0906 245° Southwest 340 391 12,000 -120 Descending Cleveland Center
01:52PM 42.2997 -83.1308 244° Southwest 253 291 12,000  Level FAA TRACON SMA TRACON (SMA)
01:52PM 42.2864 -83.1642 242° Southwest 257 296 12,000 -300 Level FAA TRACON SMA TRACON (SMA)
01:52PM 42.2706 -83.1825 221° Southwest 245 282 11,800 -900 Descending FAA TRACON SMA TRACON (SMA)
01:53PM 42.2531 -83.1972 212° Southwest 229 264 11,400 -1,500 Descending FAA TRACON SMA TRACON (SMA)
01:53PM 42.2311 -83.2167 213° Southwest 247 284 10,800 -1,680 Descending FAA TRACON SMA TRACON (SMA)
01:53PM 42.2144 -83.2322 215° Southwest 240 276 10,300 -1,500 Descending FAA TRACON SMA TRACON (SMA)
01:54PM 42.1972 -83.2478 214° Southwest 240 276 9,800 -1,500 Descending FAA TRACON SMA TRACON (SMA)
01:54PM 42.1764 -83.2669 214° Southwest 236 272 9,300 -1,320 Descending FAA TRACON SMA TRACON (SMA)
01:54PM 42.1600 -83.2822 215° Southwest 234 269 8,900 -1,380 Descending FAA TRACON SMA TRACON (SMA)
01:55PM 42.1425 -83.2953 209° Southwest 234 269 8,400 -1,680 Descending FAA TRACON SMA TRACON (SMA)
01:55PM 42.1206 -83.3106 207° Southwest 231 266 7,800 -1,680 Descending FAA TRACON SMA TRACON (SMA)
01:55PM 42.1036 -83.3236 210° Southwest 228 262 7,200 -2,040 Descending FAA TRACON SMA TRACON (SMA)
01:56PM 42.0817 -83.3353 202° Southwest 220 253 6,400 -2,220 Descending FAA TRACON SMA TRACON (SMA)
01:56PM 42.0681 -83.3411 198° South 221 254 5,900 -2,040 Descending FAA TRACON SMA TRACON (SMA)
01:56PM 42.0453 -83.3542 203° Southwest 219 252 5,200 -1,320 Descending Cleveland Center
01:57PM 42.0269 -83.4233 250° West 202 232 4,200 -840 Descending Cleveland Center
01:58PM 42.0767 -83.4394 346° North 190 219 3,500 -720 Descending Cleveland Center